createdAt,value
2023-02-25T00:00:46.760Z,98405.04
2023-02-25T00:05:54.665Z,98398.48
2023-02-25T00:11:03.031Z,98387.73
2023-02-25T00:16:11.663Z,98385.01
2023-02-25T00:21:18.831Z,98379.41
2023-02-25T00:26:25.602Z,98366.48
2023-02-25T00:31:32.009Z,98366.63
2023-02-25T00:36:39.841Z,98360.36
2023-02-25T00:41:45.840Z,98355.99
2023-02-25T00:46:52.009Z,98354.76
2023-02-25T00:51:59.918Z,98343.59
2023-02-25T00:57:06.357Z,98332.09
2023-02-25T01:02:12.624Z,98326.88
2023-02-25T01:07:20.945Z,98318.23
2023-02-25T01:12:26.810Z,98307.03
2023-02-25T01:17:33.660Z,98308.59
2023-02-25T01:22:41.833Z,98309.52
2023-02-25T01:27:47.681Z,98300.77
2023-02-25T01:32:53.591Z,98287.72
2023-02-25T01:37:59.199Z,98281.65
2023-02-25T01:43:07.885Z,98279.00
2023-02-25T01:48:18.522Z,98276.47
2023-02-25T01:53:28.202Z,98265.31
2023-02-25T01:58:36.938Z,98256.31
2023-02-25T02:03:43.390Z,98250.36
2023-02-25T02:08:49.561Z,98242.52
2023-02-25T02:13:57.978Z,98231.77
2023-02-25T02:19:17.246Z,98222.27
2023-02-25T02:24:46.261Z,98219.95
2023-02-25T02:30:12.265Z,98212.24
2023-02-25T02:35:23.950Z,98199.00
2023-02-25T02:40:43.093Z,98191.44
2023-02-25T02:45:58.191Z,98191.17
2023-02-25T02:51:10.517Z,98184.52
2023-02-25T02:56:20.178Z,98175.34
2023-02-25T03:01:30.078Z,98167.73
2023-02-25T03:06:40.530Z,98158.89
2023-02-25T03:11:46.517Z,98155.80
2023-02-25T03:16:58.732Z,98164.23
2023-02-25T03:22:10.583Z,98152.65
2023-02-25T03:27:35.135Z,98146.64
2023-02-25T03:32:47.924Z,98145.56
2023-02-25T03:38:00.703Z,98144.92
2023-02-25T03:43:11.157Z,98148.34
2023-02-25T03:48:19.241Z,98139.05
2023-02-25T03:53:25.669Z,98146.08
2023-02-25T03:58:35.893Z,98148.23
2023-02-25T04:03:41.815Z,98155.27
2023-02-25T04:08:47.794Z,98154.89
2023-02-25T04:13:53.533Z,98146.30
2023-02-25T04:19:00.039Z,98148.86
2023-02-25T04:24:07.286Z,98154.41
2023-02-25T04:29:13.485Z,98156.88
2023-02-25T04:34:19.738Z,98159.73
2023-02-25T04:39:25.547Z,98159.31
2023-02-25T04:44:31.432Z,98157.52
2023-02-25T04:49:44.830Z,98159.29
2023-02-25T04:54:50.791Z,98163.75
2023-02-25T04:59:56.559Z,98151.33
2023-02-25T05:05:02.468Z,98148.77
2023-02-25T05:10:11.225Z,98140.44
2023-02-25T05:15:17.109Z,98145.11
2023-02-25T05:20:23.857Z,98142.83
2023-02-25T05:25:30.000Z,98143.31
2023-02-25T05:30:37.193Z,98148.23
2023-02-25T05:35:43.432Z,98153.52
2023-02-25T05:40:49.657Z,98154.57
2023-02-25T05:45:57.046Z,98154.83
2023-02-25T05:51:04.918Z,98160.16
2023-02-25T05:56:14.589Z,98157.39
2023-02-25T06:01:23.654Z,98159.94
2023-02-25T06:06:31.730Z,98161.71
2023-02-25T06:11:38.272Z,98168.00
2023-02-25T06:16:44.901Z,98166.15
2023-02-25T06:21:50.666Z,98165.59
2023-02-25T06:26:56.662Z,98166.59
2023-02-25T06:32:02.634Z,98165.42
2023-02-25T06:37:09.996Z,98158.92
2023-02-25T06:42:16.122Z,98161.30
2023-02-25T06:47:23.370Z,98165.63
2023-02-25T06:52:29.362Z,98163.70
2023-02-25T06:57:35.602Z,98167.33
2023-02-25T07:02:41.401Z,98165.57
2023-02-25T07:07:47.545Z,98165.87
2023-02-25T07:12:53.649Z,98166.43
2023-02-25T07:17:59.548Z,98169.84
2023-02-25T07:23:06.380Z,98172.67
2023-02-25T07:28:12.066Z,98170.60
2023-02-25T07:33:17.694Z,98167.91
2023-02-25T07:38:24.094Z,98165.91
2023-02-25T07:43:31.580Z,98166.17
2023-02-25T07:48:37.972Z,98164.47
2023-02-25T07:53:44.214Z,98163.39
2023-02-25T07:58:51.076Z,98162.39
2023-02-25T08:03:58.305Z,98160.16
2023-02-25T08:09:05.871Z,98161.91
2023-02-25T08:14:12.388Z,98162.75
2023-02-25T08:19:18.261Z,98164.45
2023-02-25T08:24:24.633Z,98167.82
2023-02-25T08:29:31.395Z,98166.89
2023-02-25T08:34:37.728Z,98164.33
2023-02-25T08:39:43.816Z,98166.18
2023-02-25T08:44:50.104Z,98163.14
2023-02-25T08:49:55.959Z,98166.24
2023-02-25T08:55:03.513Z,98166.98
2023-02-25T09:00:15.177Z,98165.73
2023-02-25T09:05:21.049Z,98165.48
2023-02-25T09:10:26.876Z,98162.61
2023-02-25T09:15:33.133Z,98163.08
2023-02-25T09:20:39.101Z,98154.17
2023-02-25T09:25:45.709Z,98147.16
2023-02-25T09:30:51.570Z,98141.81
2023-02-25T09:36:03.463Z,98138.09
2023-02-25T09:41:26.453Z,98137.46
2023-02-25T09:46:35.017Z,98134.72
2023-02-25T09:51:48.465Z,98132.36
2023-02-25T09:56:59.287Z,98130.63
2023-02-25T10:02:22.918Z,98123.33
2023-02-25T10:07:35.090Z,98135.24
2023-02-25T10:12:51.362Z,98133.95
2023-02-25T10:18:14.861Z,98137.13
2023-02-25T10:23:40.797Z,98135.42
2023-02-25T10:28:51.028Z,98132.14
2023-02-25T10:33:58.393Z,98132.07
2023-02-25T10:39:04.541Z,98127.06
2023-02-25T10:44:14.312Z,98122.54
2023-02-25T10:49:23.239Z,98126.44
2023-02-25T10:54:29.725Z,98142.80
2023-02-25T10:59:39.688Z,98154.63
2023-02-25T11:04:46.990Z,98158.34
2023-02-25T11:10:09.342Z,98151.09
2023-02-25T11:15:44.300Z,98145.96
2023-02-25T11:20:55.586Z,98142.02
2023-02-25T11:26:02.523Z,98141.05
2023-02-25T11:31:16.364Z,98134.36
2023-02-25T11:36:31.138Z,98134.73
2023-02-25T11:41:37.244Z,98134.70
2023-02-25T11:46:53.050Z,98133.62
2023-02-25T11:52:09.922Z,98137.66
2023-02-25T11:57:26.445Z,98138.47
2023-02-25T12:02:48.539Z,98133.92
2023-02-25T12:08:13.775Z,98135.50
2023-02-25T12:13:43.699Z,98136.15
2023-02-25T12:19:18.660Z,98136.83
2023-02-25T12:24:43.578Z,98131.80
2023-02-25T12:30:10.389Z,98127.26
2023-02-25T12:35:34.949Z,98131.86
2023-02-25T12:41:03.940Z,98132.04
2023-02-25T12:46:51.633Z,98131.96
2023-02-25T12:52:19.699Z,98132.99
2023-02-25T12:57:51.071Z,98135.34
2023-02-25T13:03:15.662Z,98148.77
2023-02-25T13:09:01.221Z,98175.30
2023-02-25T13:14:29.997Z,98190.23
2023-02-25T13:20:06.063Z,98199.81
2023-02-25T13:25:25.232Z,98201.29
2023-02-25T13:30:47.225Z,98201.45
2023-02-25T13:36:02.952Z,98200.63
2023-02-25T13:41:28.560Z,98199.23
2023-02-25T13:47:00.292Z,98199.07
2023-02-25T13:52:21.921Z,98205.64
2023-02-25T13:57:42.132Z,98211.27
2023-02-25T14:03:15.148Z,98214.75
2023-02-25T14:08:44.816Z,98219.09
2023-02-25T14:14:19.862Z,98221.77
2023-02-25T14:19:37.087Z,98225.73
2023-02-25T14:24:49.988Z,98231.48
2023-02-25T14:30:15.140Z,98235.95
2023-02-25T14:35:37.864Z,98241.87
2023-02-25T14:40:49.675Z,98248.65
2023-02-25T14:46:00.418Z,98254.95
2023-02-25T14:51:32.928Z,98259.90
2023-02-25T14:56:51.617Z,98270.16
2023-02-25T15:02:26.844Z,98276.88
2023-02-25T15:07:59.220Z,98284.36
2023-02-25T15:13:43.966Z,98294.61
2023-02-25T15:19:20.625Z,98307.40
2023-02-25T15:24:40.721Z,98315.63
2023-02-25T15:29:59.600Z,98323.23
2023-02-25T15:35:21.763Z,98332.96
2023-02-25T15:40:48.957Z,98339.96
2023-02-25T15:46:38.737Z,98345.67
2023-02-25T15:51:47.945Z,98349.02
2023-02-25T15:56:55.579Z,98359.67
2023-02-25T16:02:01.520Z,98370.14
2023-02-25T16:07:13.086Z,98372.77
2023-02-25T16:12:19.892Z,98381.17
2023-02-25T16:17:32.473Z,98396.61
2023-02-25T16:22:42.712Z,98407.55
2023-02-25T16:28:01.300Z,98420.17
2023-02-25T16:33:18.924Z,98435.05
2023-02-25T16:38:36.291Z,98441.52
2023-02-25T16:43:44.655Z,98449.16
2023-02-25T16:48:54.693Z,98457.21
2023-02-25T16:54:07.801Z,98461.85
2023-02-25T16:59:21.673Z,98467.27
2023-02-25T17:04:30.825Z,98474.73
2023-02-25T17:09:42.620Z,98475.02
2023-02-25T17:14:51.377Z,98479.55
2023-02-25T17:19:59.232Z,98491.28
2023-02-25T17:25:16.020Z,98500.76
2023-02-25T17:30:41.439Z,98507.16
2023-02-25T17:35:48.473Z,98509.94
2023-02-25T17:40:55.739Z,98517.05
2023-02-25T17:46:03.906Z,98525.30
2023-02-25T17:51:11.331Z,98535.23
2023-02-25T17:56:24.459Z,98539.83
2023-02-25T18:01:45.526Z,98541.70
2023-02-25T18:06:52.786Z,98547.47
2023-02-25T18:12:01.768Z,98556.45
2023-02-25T18:17:22.868Z,98567.77
2023-02-25T18:22:30.853Z,98574.27
2023-02-25T18:27:38.063Z,98581.66
2023-02-25T18:32:44.081Z,98589.36
2023-02-25T18:37:52.587Z,98594.74
2023-02-25T18:42:59.583Z,98601.83
2023-02-25T18:48:05.445Z,98606.88
2023-02-25T18:53:15.980Z,98614.02
2023-02-25T18:58:22.801Z,98619.75
2023-02-25T19:03:36.302Z,98629.44
2023-02-25T19:08:42.112Z,98636.80
2023-02-25T19:13:48.280Z,98649.08
2023-02-25T19:18:54.729Z,98656.09
2023-02-25T19:24:00.828Z,98663.48
2023-02-25T19:29:06.796Z,98675.22
2023-02-25T19:34:13.030Z,98681.84
2023-02-25T19:39:19.395Z,98691.28
2023-02-25T19:44:25.043Z,98702.66
2023-02-25T19:49:30.992Z,98710.05
2023-02-25T19:54:36.716Z,98721.88
2023-02-25T19:59:42.564Z,98727.17
2023-02-25T20:04:48.523Z,98732.75
2023-02-25T20:09:54.509Z,98741.77
2023-02-25T20:15:00.549Z,98749.33
2023-02-25T20:20:09.159Z,98754.51
2023-02-25T20:25:15.323Z,98760.99
2023-02-25T20:30:23.018Z,98769.63
2023-02-25T20:35:30.629Z,98778.52
2023-02-25T20:40:37.554Z,98786.92
2023-02-25T20:45:44.325Z,98797.48
2023-02-25T20:50:50.906Z,98809.38
2023-02-25T20:55:58.467Z,98822.48
2023-02-25T21:01:04.812Z,98829.17
2023-02-25T21:06:13.566Z,98840.20
2023-02-25T21:11:19.614Z,98846.42
2023-02-25T21:16:26.468Z,98858.80
2023-02-25T21:21:37.251Z,98869.38
2023-02-25T21:26:43.492Z,98878.79
2023-02-25T21:31:49.313Z,98893.41
2023-02-25T21:36:58.477Z,98901.95
2023-02-25T21:42:04.760Z,98912.85
2023-02-25T21:47:10.589Z,98921.81
2023-02-25T21:52:17.264Z,98928.36
2023-02-25T21:57:22.973Z,98937.63
2023-02-25T22:02:30.465Z,98949.52
2023-02-25T22:07:37.899Z,98961.72
2023-02-25T22:12:43.874Z,98975.12
2023-02-25T22:17:49.974Z,98981.73
2023-02-25T22:22:58.043Z,98992.75
2023-02-25T22:28:05.348Z,98997.95
2023-02-25T22:33:11.684Z,99003.15
2023-02-25T22:38:18.021Z,99015.84
2023-02-25T22:43:24.589Z,99024.79
2023-02-25T22:48:30.133Z,99037.11
2023-02-25T22:53:36.529Z,99044.14
2023-02-25T22:58:42.187Z,99046.95
2023-02-25T23:03:49.298Z,99058.39
2023-02-25T23:08:55.614Z,99070.92
2023-02-25T23:14:03.160Z,99082.02
2023-02-25T23:19:11.567Z,99092.84
2023-02-25T23:24:19.375Z,99103.71
2023-02-25T23:29:25.405Z,99112.46
2023-02-25T23:34:31.338Z,99123.92
2023-02-25T23:39:37.382Z,99137.36
2023-02-25T23:44:43.330Z,99150.97
2023-02-25T23:49:49.346Z,99158.36
2023-02-25T23:54:55.255Z,99162.17
